createdAt,value
2017-10-30T00:02:17.980Z,6.20
2017-10-30T00:04:45.546Z,6.20
2017-10-30T00:07:13.045Z,6.20
2017-10-30T00:09:40.536Z,6.20
2017-10-30T00:12:08.074Z,6.20
2017-10-30T00:14:35.553Z,6.20
2017-10-30T00:17:03.120Z,6.30
2017-10-30T00:19:30.784Z,6.30
2017-10-30T00:21:58.324Z,6.30
2017-10-30T00:24:26.589Z,6.10
2017-10-30T00:26:54.124Z,6.10
2017-10-30T00:29:21.627Z,6.20
2017-10-30T00:31:49.932Z,5.90
2017-10-30T00:34:17.474Z,5.90
2017-10-30T00:36:45.125Z,5.80
2017-10-30T00:39:12.629Z,5.60
2017-10-30T00:41:40.186Z,5.50
2017-10-30T00:44:07.779Z,5.40
2017-10-30T00:46:36.196Z,5.10
2017-10-30T00:49:03.688Z,5.10
2017-10-30T00:51:31.721Z,5.00
2017-10-30T00:53:59.227Z,4.90
2017-10-30T00:56:27.570Z,4.90
2017-10-30T00:58:55.114Z,4.90
2017-10-30T01:01:22.640Z,5.00
2017-10-30T01:03:50.151Z,5.10
2017-10-30T01:06:17.702Z,5.10
2017-10-30T01:08:45.323Z,5.20
2017-10-30T01:11:13.691Z,5.40
2017-10-30T01:13:41.215Z,5.30
2017-10-30T01:16:08.738Z,5.40
2017-10-30T01:18:36.276Z,5.40
2017-10-30T01:21:04.585Z,5.50
2017-10-30T01:23:32.127Z,5.50
2017-10-30T01:26:00.402Z,5.50
2017-10-30T01:28:27.924Z,5.50
2017-10-30T01:30:55.471Z,5.50
2017-10-30T01:33:22.986Z,5.50
2017-10-30T01:35:50.528Z,5.50
2017-10-30T01:38:18.110Z,5.50
2017-10-30T01:40:45.652Z,5.60
2017-10-30T01:43:13.170Z,5.40
2017-10-30T01:45:40.658Z,5.30
2017-10-30T01:48:09.107Z,5.30
2017-10-30T01:50:36.618Z,5.20
2017-10-30T01:53:04.146Z,5.20
2017-10-30T01:55:31.687Z,5.00
2017-10-30T01:57:59.195Z,5.00
2017-10-30T02:00:26.776Z,5.20
2017-10-30T02:02:54.293Z,5.30
2017-10-30T02:05:22.583Z,5.40
2017-10-30T02:07:50.873Z,5.50
2017-10-30T02:10:18.968Z,5.50
2017-10-30T02:12:46.480Z,5.50
2017-10-30T02:15:14.800Z,5.30
2017-10-30T02:17:42.363Z,5.30
2017-10-30T02:20:09.921Z,5.30
2017-10-30T02:22:37.483Z,5.40
2017-10-30T02:25:05.024Z,5.30
2017-10-30T02:27:32.813Z,5.30
2017-10-30T02:30:00.348Z,5.30
2017-10-30T02:32:27.899Z,5.20
2017-10-30T02:34:55.428Z,5.00
2017-10-30T02:37:23.714Z,5.00
2017-10-30T02:39:51.232Z,5.00
2017-10-30T02:42:18.786Z,5.00
2017-10-30T02:44:46.296Z,5.00
2017-10-30T02:47:13.860Z,5.00
2017-10-30T02:49:41.935Z,5.00
2017-10-30T02:52:10.026Z,4.90
2017-10-30T02:54:37.547Z,4.80
2017-10-30T02:57:05.816Z,4.80
2017-10-30T02:59:33.356Z,4.80
2017-10-30T03:02:00.864Z,4.80
2017-10-30T03:04:28.403Z,4.70
2017-10-30T03:06:55.931Z,4.70
2017-10-30T03:09:23.423Z,4.60
2017-10-30T03:11:50.968Z,4.60
2017-10-30T03:14:18.460Z,4.60
2017-10-30T03:16:45.977Z,4.70
2017-10-30T03:19:13.513Z,4.70
2017-10-30T03:21:41.052Z,4.70
2017-10-30T03:24:08.567Z,4.70
2017-10-30T03:26:36.869Z,4.70
2017-10-30T03:29:04.370Z,4.60
2017-10-30T03:31:31.887Z,4.70
2017-10-30T03:33:59.432Z,4.70
2017-10-30T03:36:26.928Z,4.70
2017-10-30T03:38:54.424Z,4.70
2017-10-30T03:41:21.945Z,4.80
2017-10-30T03:43:50.014Z,4.80
2017-10-30T03:46:17.552Z,4.90
2017-10-30T03:48:45.067Z,4.90
2017-10-30T03:51:12.625Z,5.00
2017-10-30T03:53:40.140Z,5.10
2017-10-30T03:56:07.672Z,5.10
2017-10-30T03:58:35.935Z,5.20
2017-10-30T04:01:03.433Z,5.30
2017-10-30T04:03:30.984Z,5.30
2017-10-30T04:05:58.490Z,5.40
2017-10-30T04:08:25.982Z,5.60
2017-10-30T04:10:53.521Z,5.70
2017-10-30T04:13:21.009Z,5.90
2017-10-30T04:15:49.360Z,5.90
2017-10-30T04:18:17.632Z,6.10
2017-10-30T04:20:45.186Z,6.10
2017-10-30T04:23:12.705Z,6.20
2017-10-30T04:25:40.271Z,6.20
2017-10-30T04:28:08.052Z,6.20
2017-10-30T04:30:35.605Z,6.20
2017-10-30T04:33:03.096Z,6.10
2017-10-30T04:35:31.353Z,5.90
2017-10-30T04:37:58.881Z,5.90
2017-10-30T04:40:26.418Z,5.90
2017-10-30T04:42:53.956Z,5.80
2017-10-30T04:45:21.465Z,5.80
2017-10-30T04:47:49.472Z,5.70
2017-10-30T04:50:17.782Z,5.60
2017-10-30T04:52:45.335Z,5.50
2017-10-30T04:55:12.868Z,5.50
2017-10-30T04:57:41.635Z,5.50
2017-10-30T05:00:09.685Z,5.50
2017-10-30T05:02:37.221Z,5.40
2017-10-30T05:05:04.733Z,5.40
2017-10-30T05:07:32.255Z,5.50
2017-10-30T05:10:00.210Z,5.40
2017-10-30T05:12:27.747Z,5.30
2017-10-30T05:14:56.015Z,5.40
2017-10-30T05:17:23.552Z,5.40
2017-10-30T05:19:51.057Z,5.50
2017-10-30T05:22:18.598Z,5.60
2017-10-30T05:24:46.860Z,5.70
2017-10-30T05:27:14.431Z,5.70
2017-10-30T05:29:41.974Z,5.70
2017-10-30T05:32:09.515Z,5.80
2017-10-30T05:34:37.708Z,5.80
2017-10-30T05:37:05.244Z,5.90
2017-10-30T05:39:32.751Z,5.90
2017-10-30T05:42:00.263Z,6.00
2017-10-30T05:44:27.767Z,6.00
2017-10-30T05:46:55.299Z,6.10
2017-10-30T05:49:23.573Z,6.20
2017-10-30T05:51:51.073Z,6.20
2017-10-30T05:54:18.582Z,6.20
2017-10-30T05:56:46.102Z,6.10
2017-10-30T05:59:13.604Z,6.10
2017-10-30T06:01:41.195Z,6.10
2017-10-30T06:04:08.691Z,5.90
2017-10-30T06:06:36.287Z,5.90
2017-10-30T06:09:03.811Z,5.90
2017-10-30T06:11:31.328Z,5.90
2017-10-30T06:13:58.858Z,5.90
2017-10-30T06:16:26.397Z,5.90
2017-10-30T06:18:53.952Z,5.90
2017-10-30T06:21:21.494Z,5.80
2017-10-30T06:23:49.029Z,5.80
2017-10-30T06:26:16.594Z,5.80
2017-10-30T06:28:44.080Z,5.90
2017-10-30T06:31:11.613Z,6.00
2017-10-30T06:33:39.312Z,5.90
2017-10-30T06:36:06.806Z,5.90
2017-10-30T06:38:35.105Z,5.90
2017-10-30T06:41:02.652Z,5.90
2017-10-30T06:43:30.193Z,6.00
2017-10-30T06:45:58.515Z,6.10
2017-10-30T06:48:26.020Z,6.00
2017-10-30T06:50:53.544Z,6.00
2017-10-30T06:53:21.119Z,6.00
2017-10-30T06:55:48.652Z,6.00
2017-10-30T06:58:16.155Z,6.00
2017-10-30T07:00:43.830Z,6.00
2017-10-30T07:03:12.143Z,6.20
2017-10-30T07:05:39.701Z,6.20
2017-10-30T07:08:07.200Z,6.20
2017-10-30T07:10:35.379Z,6.20
2017-10-30T07:13:02.959Z,6.30
2017-10-30T07:15:30.476Z,6.20
2017-10-30T07:17:58.059Z,6.30
2017-10-30T07:20:25.607Z,6.30
2017-10-30T07:22:53.152Z,6.40
2017-10-30T07:25:20.664Z,6.50
2017-10-30T07:27:48.980Z,6.60
2017-10-30T07:30:16.510Z,6.50
2017-10-30T07:32:44.029Z,6.60
2017-10-30T07:35:11.613Z,6.70
2017-10-30T07:37:39.118Z,6.70
2017-10-30T07:40:06.664Z,6.80
2017-10-30T07:42:34.193Z,6.80
2017-10-30T07:45:02.468Z,7.00
2017-10-30T07:47:30.037Z,7.00
2017-10-30T07:49:57.559Z,7.00
2017-10-30T07:52:25.172Z,7.20
2017-10-30T07:54:52.724Z,7.20
2017-10-30T07:57:20.243Z,7.20
2017-10-30T07:59:47.763Z,7.20
2017-10-30T08:02:15.980Z,7.30
2017-10-30T08:04:43.474Z,7.40
2017-10-30T08:07:12.175Z,7.40
2017-10-30T08:09:39.725Z,7.50
2017-10-30T08:12:07.285Z,7.60
2017-10-30T08:14:34.895Z,7.60
2017-10-30T08:17:02.493Z,7.60
2017-10-30T08:19:30.512Z,7.70
2017-10-30T08:21:58.024Z,7.70
2017-10-30T08:24:25.596Z,7.90
2017-10-30T08:26:53.133Z,8.00
2017-10-30T08:29:20.668Z,8.10
2017-10-30T08:31:49.004Z,8.10
2017-10-30T08:34:16.515Z,8.10
2017-10-30T08:36:44.844Z,8.30
2017-10-30T08:39:12.412Z,8.20
2017-10-30T08:41:39.954Z,8.40
2017-10-30T08:44:07.456Z,8.50
2017-10-30T08:46:34.957Z,8.60
2017-10-30T08:49:02.488Z,8.70
2017-10-30T08:51:30.777Z,8.80
2017-10-30T08:53:58.330Z,8.80
2017-10-30T08:56:26.605Z,9.00
2017-10-30T08:58:54.129Z,8.90
2017-10-30T09:01:21.651Z,8.80
2017-10-30T09:03:49.191Z,8.90
2017-10-30T09:06:16.704Z,8.90
2017-10-30T09:08:44.244Z,9.00
2017-10-30T09:11:11.787Z,9.00
2017-10-30T09:13:39.456Z,9.20
2017-10-30T09:16:07.059Z,9.00
2017-10-30T09:18:34.566Z,9.10
2017-10-30T09:21:02.073Z,9.00
2017-10-30T09:23:30.115Z,8.90
2017-10-30T09:25:57.671Z,8.80
2017-10-30T09:28:25.208Z,8.90
2017-10-30T09:30:53.537Z,8.70
2017-10-30T09:33:21.087Z,8.70
2017-10-30T09:35:48.608Z,8.70
2017-10-30T09:38:16.112Z,8.70
2017-10-30T09:40:43.608Z,8.70
2017-10-30T09:43:11.139Z,8.80
2017-10-30T09:45:39.659Z,8.80
2017-10-30T09:48:07.179Z,8.80
2017-10-30T09:50:34.688Z,8.70
2017-10-30T09:53:02.235Z,8.80
2017-10-30T09:55:30.616Z,8.60
2017-10-30T09:57:58.117Z,8.50
2017-10-30T10:00:25.682Z,8.50
2017-10-30T10:02:53.201Z,8.60
2017-10-30T10:05:20.749Z,8.80
2017-10-30T10:07:48.361Z,9.00
2017-10-30T10:10:15.855Z,9.30
2017-10-30T10:12:43.571Z,10.10
2017-10-30T10:15:11.101Z,10.50
2017-10-30T10:17:38.684Z,10.70
2017-10-30T10:20:06.200Z,10.90
2017-10-30T10:22:33.742Z,10.80
2017-10-30T10:25:01.307Z,10.90
2017-10-30T10:27:28.834Z,10.90
2017-10-30T10:29:56.764Z,10.90
2017-10-30T10:32:24.302Z,10.70
2017-10-30T10:34:51.871Z,10.80
2017-10-30T10:37:19.455Z,10.70
2017-10-30T10:39:47.151Z,10.80
2017-10-30T10:42:14.697Z,10.70
2017-10-30T10:44:42.272Z,10.60
2017-10-30T10:47:09.826Z,10.70
2017-10-30T10:49:37.339Z,10.70
2017-10-30T10:52:04.912Z,10.80
2017-10-30T10:54:32.431Z,10.80
2017-10-30T10:57:00.004Z,11.00
2017-10-30T10:59:27.980Z,11.20
2017-10-30T11:01:55.483Z,11.40
2017-10-30T11:04:23.090Z,11.40
2017-10-30T11:06:50.599Z,11.60
2017-10-30T11:09:18.625Z,11.30
2017-10-30T11:11:46.163Z,11.30
2017-10-30T11:14:13.709Z,11.30
2017-10-30T11:16:41.231Z,11.30
2017-10-30T11:19:08.833Z,11.30
2017-10-30T11:21:37.157Z,11.50
2017-10-30T11:24:04.734Z,11.40
2017-10-30T11:26:32.883Z,11.80
2017-10-30T11:29:00.405Z,12.00
2017-10-30T11:31:28.757Z,12.60
2017-10-30T11:33:56.278Z,12.60
2017-10-30T11:36:23.807Z,13.10
2017-10-30T11:38:52.078Z,12.60
2017-10-30T11:41:20.429Z,12.50
2017-10-30T11:43:47.925Z,12.60
2017-10-30T11:46:15.450Z,12.60
2017-10-30T11:48:43.014Z,12.40
2017-10-30T11:51:10.526Z,12.40
2017-10-30T11:53:38.026Z,12.60
2017-10-30T11:56:05.555Z,12.40
2017-10-30T11:58:33.049Z,12.60
2017-10-30T12:01:00.600Z,12.80
2017-10-30T12:03:28.092Z,12.80
2017-10-30T12:05:55.604Z,12.50
2017-10-30T12:08:23.131Z,12.20
2017-10-30T12:10:50.645Z,12.20
2017-10-30T12:13:18.173Z,12.30
2017-10-30T12:15:45.734Z,12.30
2017-10-30T12:18:13.257Z,12.30
2017-10-30T12:20:40.825Z,12.20
2017-10-30T12:23:08.333Z,12.30
2017-10-30T12:25:36.298Z,12.30
2017-10-30T12:28:04.430Z,12.50
2017-10-30T12:30:31.941Z,12.90
2017-10-30T12:32:59.684Z,13.10
2017-10-30T12:35:27.196Z,13.20
2017-10-30T12:37:54.707Z,13.40
2017-10-30T12:40:22.263Z,13.60
2017-10-30T12:42:49.792Z,13.70
2017-10-30T12:45:17.706Z,13.60
2017-10-30T12:47:45.217Z,13.40
2017-10-30T12:50:12.742Z,13.10
2017-10-30T12:52:41.065Z,12.80
2017-10-30T12:55:08.573Z,12.80
2017-10-30T12:57:36.066Z,12.40
2017-10-30T13:00:03.618Z,12.40
2017-10-30T13:02:31.914Z,12.60
2017-10-30T13:04:59.426Z,12.60
2017-10-30T13:07:26.994Z,12.80
2017-10-30T13:09:54.504Z,12.40
2017-10-30T13:12:21.999Z,12.10
2017-10-30T13:14:49.568Z,11.90
2017-10-30T13:17:17.076Z,11.60
2017-10-30T13:19:44.584Z,11.60
2017-10-30T13:22:12.133Z,11.60
2017-10-30T13:24:39.642Z,11.70
2017-10-30T13:27:07.172Z,11.80
2017-10-30T13:29:35.460Z,12.00
2017-10-30T13:32:02.960Z,12.00
2017-10-30T13:34:30.530Z,12.30
2017-10-30T13:36:58.061Z,12.60
2017-10-30T13:39:25.564Z,13.30
2017-10-30T13:41:53.116Z,13.70
2017-10-30T13:44:20.618Z,13.50
2017-10-30T13:46:48.887Z,13.80
2017-10-30T13:49:16.376Z,13.50
2017-10-30T13:51:43.879Z,12.90
2017-10-30T13:54:11.421Z,12.60
2017-10-30T13:56:38.925Z,12.20
2017-10-30T13:59:06.415Z,11.90
2017-10-30T14:01:33.972Z,11.70
2017-10-30T14:04:01.464Z,11.70
2017-10-30T14:06:28.973Z,11.50
2017-10-30T14:08:56.502Z,11.40
2017-10-30T14:11:24.774Z,11.30
2017-10-30T14:13:52.299Z,11.20
2017-10-30T14:16:19.852Z,11.40
2017-10-30T14:18:47.361Z,11.60
2017-10-30T14:21:15.404Z,11.30
2017-10-30T14:23:42.947Z,11.70
2017-10-30T14:26:10.443Z,11.80
2017-10-30T14:28:37.989Z,11.70
2017-10-30T14:31:05.526Z,11.30
2017-10-30T14:33:33.043Z,11.30
2017-10-30T14:36:00.586Z,10.90
2017-10-30T14:38:28.864Z,10.70
2017-10-30T14:40:57.124Z,10.70
2017-10-30T14:43:25.416Z,11.10
2017-10-30T14:45:52.973Z,11.00
2017-10-30T14:48:21.198Z,11.40
2017-10-30T14:50:48.719Z,11.70
2017-10-30T14:53:16.230Z,11.90
2017-10-30T14:55:43.792Z,11.90
2017-10-30T14:58:11.347Z,12.10
2017-10-30T15:00:38.847Z,12.10
2017-10-30T15:03:07.110Z,12.00
2017-10-30T15:05:35.189Z,12.00
2017-10-30T15:08:03.261Z,12.00
2017-10-30T15:10:30.756Z,12.10
2017-10-30T15:12:58.304Z,12.20
2017-10-30T15:15:25.815Z,12.10
2017-10-30T15:17:53.349Z,12.10
2017-10-30T15:20:21.042Z,11.90
2017-10-30T15:22:48.568Z,11.90
2017-10-30T15:25:16.106Z,11.80
2017-10-30T15:27:43.703Z,11.70
2017-10-30T15:30:11.235Z,11.30
2017-10-30T15:32:38.825Z,11.20
2017-10-30T15:35:06.331Z,10.90
2017-10-30T15:37:33.862Z,10.60
2017-10-30T15:40:02.139Z,10.10
2017-10-30T15:42:29.644Z,10.10
2017-10-30T15:44:57.187Z,9.80
2017-10-30T15:47:24.679Z,9.60
2017-10-30T15:49:52.229Z,9.60
2017-10-30T15:52:20.479Z,9.50
2017-10-30T15:54:48.046Z,9.40
2017-10-30T15:57:15.576Z,9.30
2017-10-30T15:59:43.233Z,9.40
2017-10-30T16:02:11.528Z,9.40
2017-10-30T16:04:39.029Z,9.40
2017-10-30T16:07:06.581Z,9.30
2017-10-30T16:09:34.322Z,9.20
2017-10-30T16:12:01.819Z,9.20
2017-10-30T16:14:29.677Z,9.30
2017-10-30T16:16:57.201Z,9.20
2017-10-30T16:19:24.711Z,9.20
2017-10-30T16:21:52.263Z,9.20
2017-10-30T16:24:19.763Z,9.10
2017-10-30T16:26:47.326Z,9.10
2017-10-30T16:29:14.856Z,9.00
2017-10-30T16:31:42.397Z,8.90
2017-10-30T16:34:09.949Z,8.70
2017-10-30T16:36:38.600Z,8.50
2017-10-30T16:39:06.126Z,8.40
2017-10-30T16:41:33.652Z,8.20
2017-10-30T16:44:01.192Z,8.20
2017-10-30T16:46:28.753Z,8.00
2017-10-30T16:48:56.274Z,7.80
2017-10-30T16:51:23.768Z,7.90
2017-10-30T16:53:52.101Z,7.80
2017-10-30T16:56:19.774Z,7.80
2017-10-30T16:58:47.280Z,7.70
2017-10-30T17:01:14.910Z,7.60
2017-10-30T17:03:42.445Z,7.50
2017-10-30T17:06:10.715Z,7.20
2017-10-30T17:08:38.223Z,7.20
2017-10-30T17:11:06.351Z,7.10
2017-10-30T17:13:33.876Z,7.00
2017-10-30T17:16:01.389Z,7.00
2017-10-30T17:18:29.288Z,7.00
2017-10-30T17:20:56.784Z,7.00
2017-10-30T17:23:24.327Z,6.90
2017-10-30T17:25:51.881Z,6.80
2017-10-30T17:28:19.421Z,6.80
2017-10-30T17:30:47.090Z,6.70
2017-10-30T17:33:14.572Z,6.70
2017-10-30T17:35:42.091Z,6.60
2017-10-30T17:38:09.659Z,6.60
2017-10-30T17:40:37.164Z,6.50
2017-10-30T17:43:04.678Z,6.40
2017-10-30T17:45:32.232Z,6.40
2017-10-30T17:47:59.729Z,6.40
2017-10-30T17:50:27.248Z,6.30
2017-10-30T17:52:54.822Z,6.20
2017-10-30T17:55:22.343Z,6.20
2017-10-30T17:57:49.882Z,6.20
2017-10-30T18:00:17.432Z,6.10
2017-10-30T18:02:45.696Z,6.00
2017-10-30T18:05:13.293Z,6.00
2017-10-30T18:07:40.824Z,5.90
2017-10-30T18:10:09.153Z,5.80
2017-10-30T18:12:36.706Z,5.80
2017-10-30T18:15:04.211Z,5.70
2017-10-30T18:17:32.542Z,5.60
2017-10-30T18:20:00.079Z,5.60
2017-10-30T18:22:27.578Z,5.60
2017-10-30T18:24:55.078Z,5.50
2017-10-30T18:27:23.380Z,5.50
2017-10-30T18:29:50.888Z,5.50
2017-10-30T18:32:18.421Z,5.50
2017-10-30T18:34:45.932Z,5.50
2017-10-30T18:37:13.494Z,5.40
2017-10-30T18:39:40.984Z,5.40
2017-10-30T18:42:08.519Z,5.30
2017-10-30T18:44:36.022Z,5.30
2017-10-30T18:47:03.549Z,5.30
2017-10-30T18:49:31.403Z,5.30
2017-10-30T18:51:59.549Z,5.30
2017-10-30T18:54:27.817Z,5.40
2017-10-30T18:56:55.772Z,5.40
2017-10-30T18:59:23.311Z,5.50
2017-10-30T19:01:50.870Z,5.60
2017-10-30T19:04:18.396Z,5.70
2017-10-30T19:06:45.964Z,5.70
2017-10-30T19:09:13.504Z,5.80
2017-10-30T19:11:41.779Z,5.90
2017-10-30T19:14:09.312Z,5.90
2017-10-30T19:16:36.839Z,5.90
2017-10-30T19:19:04.390Z,5.90
2017-10-30T19:21:31.911Z,6.10
2017-10-30T19:24:00.182Z,6.20
2017-10-30T19:26:28.499Z,6.20
2017-10-30T19:28:56.002Z,6.20
2017-10-30T19:31:24.312Z,6.30
2017-10-30T19:33:51.856Z,6.30
2017-10-30T19:36:20.123Z,6.50
2017-10-30T19:38:47.661Z,6.40
2017-10-30T19:41:15.222Z,6.50
2017-10-30T19:43:42.731Z,6.50
2017-10-30T19:46:10.255Z,6.50
2017-10-30T19:48:37.776Z,6.60
2017-10-30T19:51:05.274Z,6.60
2017-10-30T19:53:32.839Z,6.60
2017-10-30T19:56:00.349Z,6.50
2017-10-30T19:58:27.849Z,6.50
2017-10-30T20:00:55.429Z,6.50
2017-10-30T20:03:23.697Z,6.50
2017-10-30T20:05:57.513Z,6.40
2017-10-30T20:08:31.437Z,6.40
2017-10-30T20:11:04.934Z,6.40
2017-10-30T20:13:32.447Z,6.30
2017-10-30T20:15:59.957Z,6.20
2017-10-30T20:18:27.485Z,6.10
2017-10-30T20:20:55.012Z,6.10
2017-10-30T20:23:22.840Z,6.10
2017-10-30T20:25:50.385Z,6.10
2017-10-30T20:28:17.921Z,6.10
2017-10-30T20:30:45.480Z,6.10
2017-10-30T20:33:12.986Z,6.00
2017-10-30T20:35:40.485Z,6.10
2017-10-30T20:38:08.027Z,6.10
2017-10-30T20:40:35.558Z,6.10
2017-10-30T20:43:03.144Z,6.10
2017-10-30T20:45:30.636Z,6.00
2017-10-30T20:47:58.964Z,6.10
2017-10-30T20:50:26.469Z,6.10
2017-10-30T20:52:54.003Z,6.10
2017-10-30T20:55:21.510Z,6.10
2017-10-30T20:57:49.827Z,6.10
2017-10-30T21:00:17.431Z,6.10
2017-10-30T21:02:44.977Z,6.20
2017-10-30T21:05:12.535Z,6.20
2017-10-30T21:07:40.071Z,6.20
2017-10-30T21:10:07.641Z,6.20
2017-10-30T21:12:35.150Z,6.30
2017-10-30T21:15:02.735Z,6.40
2017-10-30T21:17:30.246Z,6.40
2017-10-30T21:19:57.774Z,6.50
2017-10-30T21:22:25.336Z,6.60
2017-10-30T21:24:52.847Z,6.60
2017-10-30T21:27:20.532Z,6.60
2017-10-30T21:29:48.074Z,6.60
2017-10-30T21:32:15.577Z,6.60
2017-10-30T21:34:43.102Z,6.70
2017-10-30T21:37:10.651Z,6.70
2017-10-30T21:39:38.227Z,6.60
2017-10-30T21:42:05.727Z,6.60
2017-10-30T21:44:33.237Z,6.50
2017-10-30T21:47:00.764Z,6.40
2017-10-30T21:49:28.303Z,6.20
2017-10-30T21:51:55.816Z,6.00
2017-10-30T21:54:23.369Z,6.10
2017-10-30T21:56:50.912Z,6.20
2017-10-30T21:59:18.421Z,6.20
2017-10-30T22:01:45.986Z,6.10
2017-10-30T22:04:13.513Z,5.90
2017-10-30T22:06:41.076Z,5.80
2017-10-30T22:09:09.074Z,5.70
2017-10-30T22:11:36.615Z,5.50
2017-10-30T22:14:04.193Z,5.40
2017-10-30T22:16:31.723Z,5.20
2017-10-30T22:18:59.301Z,4.90
2017-10-30T22:21:26.815Z,4.90
2017-10-30T22:23:54.339Z,4.80
2017-10-30T22:26:21.899Z,4.70
2017-10-30T22:28:49.392Z,4.60
2017-10-30T22:31:16.931Z,4.60
2017-10-30T22:33:45.200Z,4.30
2017-10-30T22:36:12.730Z,4.30
2017-10-30T22:38:40.260Z,4.20
2017-10-30T22:41:07.763Z,4.10
2017-10-30T22:43:35.603Z,4.00
2017-10-30T22:46:03.116Z,4.00
2017-10-30T22:48:30.612Z,3.90
2017-10-30T22:50:58.921Z,3.80
2017-10-30T22:53:26.462Z,3.80
2017-10-30T22:55:53.978Z,3.80
2017-10-30T22:58:22.274Z,3.60
2017-10-30T23:00:49.823Z,3.60
2017-10-30T23:03:17.363Z,3.60
2017-10-30T23:05:44.889Z,3.60
2017-10-30T23:08:12.422Z,3.50
2017-10-30T23:10:40.880Z,3.50
2017-10-30T23:13:08.448Z,3.40
2017-10-30T23:15:35.955Z,3.40
2017-10-30T23:18:03.505Z,3.40
2017-10-30T23:20:31.012Z,3.30
2017-10-30T23:22:58.505Z,3.10
2017-10-30T23:25:26.051Z,3.20
2017-10-30T23:27:53.751Z,3.20
2017-10-30T23:30:21.284Z,3.20
2017-10-30T23:32:48.840Z,3.20
2017-10-30T23:35:16.359Z,3.20
2017-10-30T23:37:44.623Z,3.20
2017-10-30T23:40:12.173Z,3.20
2017-10-30T23:42:39.669Z,3.20
2017-10-30T23:45:07.172Z,3.20
2017-10-30T23:47:34.708Z,3.10
2017-10-30T23:50:02.404Z,3.10
2017-10-30T23:52:29.943Z,3.10
2017-10-30T23:54:57.501Z,3.00
2017-10-30T23:57:25.026Z,3.00
2017-10-30T23:59:52.570Z,3.00
